Time,TemperatureF,DewpointF,PressureIn,WindDirection,WindDirectionDegrees,WindSpeedMPH,WindSpeedGustMPH,Humidity,HourlyPrecipIn,Conditions,Clouds,dailyrainin,SoftwareType,DateUTC
2013-07-18 00:02:00,86.0,69.0,30.06,SW,221,5.0,10.0,58,0.00,,,0.00,,2013-07-18 04:02:00,
2013-07-18 00:32:00,86.0,70.0,30.05,WSW,247,6.0,11.0,59,0.00,,,0.00,,2013-07-18 04:32:00,
2013-07-18 00:43:00,86.0,70.0,30.05,WSW,247,6.0,11.0,59,0.00,,,0.00,,2013-07-18 04:43:00,
2013-07-18 00:52:00,85.0,70.0,30.05,SSW,210,9.0,9.0,61,0.00,,,0.00,,2013-07-18 04:52:00,
2013-07-18 01:02:00,85.0,70.0,30.05,SSW,210,9.0,9.0,61,0.00,,,0.00,,2013-07-18 05:02:00,
2013-07-18 01:11:00,85.0,70.0,30.05,SSW,210,9.0,9.0,61,0.00,,,0.00,,2013-07-18 05:11:00,
2013-07-18 01:22:00,85.0,70.0,30.04,WSW,246,3.0,4.0,62,0.00,,,0.00,,2013-07-18 05:22:00,
2013-07-18 01:32:00,84.0,70.0,30.05,WNW,290,3.0,6.0,62,0.00,,,0.00,,2013-07-18 05:32:00,
2013-07-18 01:52:00,84.0,70.0,30.05,SW,231,2.0,6.0,62,0.00,,,0.00,,2013-07-18 05:52:00,
2013-07-18 02:01:00,84.0,70.0,30.05,SW,231,2.0,6.0,62,0.00,,,0.00,,2013-07-18 06:01:00,
2013-07-18 02:12:00,84.0,70.0,30.05,SW,231,2.0,6.0,62,0.00,,,0.00,,2013-07-18 06:12:00,
2013-07-18 02:22:00,84.0,70.0,30.04,SW,236,2.0,6.0,63,0.00,,,0.00,,2013-07-18 06:22:00,
2013-07-18 02:32:00,84.0,70.0,30.03,WSW,252,1.0,3.0,63,0.00,,,0.00,,2013-07-18 06:32:00,
2013-07-18 02:43:00,84.0,70.0,30.03,WSW,252,1.0,3.0,63,0.00,,,0.00,,2013-07-18 06:43:00,
2013-07-18 02:52:00,84.0,70.0,30.03,WSW,252,1.0,3.0,63,0.00,,,0.00,,2013-07-18 06:52:00,
2013-07-18 03:01:00,84.0,70.0,30.03,WSW,252,1.0,3.0,63,0.00,,,0.00,,2013-07-18 07:01:00,
2013-07-18 03:12:00,84.0,70.0,30.03,WSW,252,1.0,3.0,63,0.00,,,0.00,,2013-07-18 07:12:00,
2013-07-18 03:22:00,83.0,70.0,30.02,SW,231,3.0,3.0,65,0.00,,,0.00,,2013-07-18 07:22:00,
2013-07-18 03:32:00,83.0,70.0,30.02,SW,229,1.0,3.0,65,0.00,,,0.00,,2013-07-18 07:32:00,
2013-07-18 03:42:00,83.0,70.0,30.02,SW,229,1.0,3.0,65,0.00,,,0.00,,2013-07-18 07:42:00,
2013-07-18 03:52:00,83.0,70.0,30.02,SW,229,1.0,3.0,65,0.00,,,0.00,,2013-07-18 07:52:00,
2013-07-18 04:01:00,83.0,70.0,30.01,SW,234,0.0,4.0,65,0.00,,,0.00,,2013-07-18 08:01:00,
2013-07-18 04:11:00,83.0,70.0,30.01,SW,234,0.0,4.0,65,0.00,,,0.00,,2013-07-18 08:11:00,
2013-07-18 04:21:00,83.0,70.0,30.01,SW,234,0.0,4.0,65,0.00,,,0.00,,2013-07-18 08:21:00,
2013-07-18 04:32:00,83.0,70.0,30.01,SW,234,0.0,4.0,65,0.00,,,0.00,,2013-07-18 08:32:00,
2013-07-18 04:52:00,83.0,69.0,30.01,West,261,0.0,2.0,62,0.00,,,0.00,,2013-07-18 08:52:00,
2013-07-18 05:01:00,83.0,69.0,30.01,West,261,0.0,2.0,62,0.00,,,0.00,,2013-07-18 09:01:00,
2013-07-18 05:11:00,83.0,69.0,30.01,West,261,0.0,2.0,62,0.00,,,0.00,,2013-07-18 09:11:00,
2013-07-18 05:21:00,83.0,69.0,30.00,West,266,0.0,2.0,62,0.00,,,0.00,,2013-07-18 09:21:00,
2013-07-18 05:32:00,83.0,69.0,30.01,West,263,0.0,3.0,63,0.00,,,0.00,,2013-07-18 09:32:00,
2013-07-18 05:42:00,82.0,68.0,30.01,West,265,1.0,2.0,63,0.00,,,0.00,,2013-07-18 09:42:00,
2013-07-18 05:51:00,82.0,68.0,30.01,West,265,1.0,2.0,63,0.00,,,0.00,,2013-07-18 09:51:00,
2013-07-18 06:01:00,82.0,69.0,30.01,West,262,0.0,3.0,64,0.00,,,0.00,,2013-07-18 10:01:00,
2013-07-18 06:11:00,82.0,69.0,30.01,West,262,0.0,3.0,64,0.00,,,0.00,,2013-07-18 10:11:00,
2013-07-18 06:32:00,82.0,69.0,30.01,West,264,0.0,3.0,65,0.00,,,0.00,,2013-07-18 10:32:00,
2013-07-18 06:52:00,82.0,69.0,30.01,West,279,1.0,3.0,65,0.00,,,0.00,,2013-07-18 10:52:00,
2013-07-18 07:01:00,82.0,69.0,30.01,West,279,1.0,3.0,65,0.00,,,0.00,,2013-07-18 11:01:00,
2013-07-18 07:11:00,83.0,70.0,30.01,WNW,283,3.0,3.0,65,0.00,,,0.00,,2013-07-18 11:11:00,
2013-07-18 07:22:00,83.0,70.0,30.01,WNW,283,3.0,3.0,65,0.00,,,0.00,,2013-07-18 11:22:00,
2013-07-18 07:32:00,83.0,70.0,30.01,WNW,283,3.0,3.0,65,0.00,,,0.00,,2013-07-18 11:32:00,
2013-07-18 07:43:00,83.0,70.0,30.01,WNW,283,3.0,3.0,65,0.00,,,0.00,,2013-07-18 11:43:00,
2013-07-18 07:52:00,84.0,70.0,30.02,WNW,303,0.0,5.0,64,0.00,,,0.00,,2013-07-18 11:52:00,
2013-07-18 08:02:00,84.0,70.0,30.02,NW,319,3.0,7.0,63,0.00,,,0.00,,2013-07-18 12:02:00,
2013-07-18 08:11:00,85.0,71.0,30.02,North,0,3.0,6.0,63,0.00,,,0.00,,2013-07-18 12:11:00,
2013-07-18 08:22:00,85.0,71.0,30.02,North,0,3.0,6.0,63,0.00,,,0.00,,2013-07-18 12:22:00,
2013-07-18 08:33:00,85.0,71.0,30.02,North,0,3.0,6.0,63,0.00,,,0.00,,2013-07-18 12:33:00,
2013-07-18 08:42:00,85.0,71.0,30.02,WNW,300,2.0,4.0,63,0.00,,,0.00,,2013-07-18 12:42:00,
2013-07-18 08:52:00,85.0,71.0,30.02,WNW,300,2.0,4.0,63,0.00,,,0.00,,2013-07-18 12:52:00,
2013-07-18 09:01:00,86.0,71.0,30.03,North,356,5.0,9.0,62,0.00,,,0.00,,2013-07-18 13:01:00,
2013-07-18 09:11:00,86.0,71.0,30.03,North,356,5.0,9.0,62,0.00,,,0.00,,2013-07-18 13:11:00,
2013-07-18 09:43:00,90.0,72.0,30.03,North,353,4.0,8.0,55,0.00,,,0.00,,2013-07-18 13:43:00,
2013-07-18 10:02:00,92.0,72.0,30.02,NNW,339,5.0,9.0,53,0.00,,,0.00,,2013-07-18 14:02:00,
2013-07-18 10:22:00,93.0,73.0,30.02,NNE,32,3.0,5.0,52,0.00,,,0.00,,2013-07-18 14:22:00,
2013-07-18 10:33:00,93.0,73.0,30.02,NNE,32,3.0,5.0,52,0.00,,,0.00,,2013-07-18 14:33:00,
2013-07-18 10:43:00,94.0,72.0,30.02,NNW,335,4.0,6.0,50,0.00,,,0.00,,2013-07-18 14:43:00,
2013-07-18 11:01:00,95.0,72.0,30.02,NNW,328,9.0,9.0,48,0.00,,,0.00,,2013-07-18 15:01:00,
2013-07-18 11:43:00,96.0,71.0,30.02,NW,326,3.0,10.0,45,0.00,,,0.00,,2013-07-18 15:43:00,
2013-07-18 11:53:00,96.0,71.0,30.02,NW,326,3.0,10.0,45,0.00,,,0.00,,2013-07-18 15:53:00,
2013-07-18 12:01:00,96.0,71.0,30.02,NW,326,3.0,10.0,45,0.00,,,0.00,,2013-07-18 16:01:00,
2013-07-18 12:22:00,97.0,67.0,30.01,West,273,8.0,10.0,38,0.00,,,0.00,,2013-07-18 16:22:00,
2013-07-18 12:32:00,97.0,66.0,30.01,WNW,293,2.0,10.0,37,0.00,,,0.00,,2013-07-18 16:32:00,
2013-07-18 12:42:00,97.0,66.0,30.01,WNW,293,2.0,10.0,37,0.00,,,0.00,,2013-07-18 16:42:00,
2013-07-18 12:52:00,97.0,66.0,30.01,WNW,293,2.0,10.0,37,0.00,,,0.00,,2013-07-18 16:52:00,
2013-07-18 13:02:00,97.0,66.0,30.01,WNW,293,2.0,10.0,37,0.00,,,0.00,,2013-07-18 17:02:00,
2013-07-18 13:22:00,99.0,65.0,30.00,NNW,346,0.0,6.0,33,0.00,,,0.00,,2013-07-18 17:22:00,
2013-07-18 13:43:00,99.0,66.0,30.00,WNW,301,5.0,12.0,35,0.00,,,0.00,,2013-07-18 17:43:00,
2013-07-18 13:52:00,99.0,66.0,30.00,WNW,301,5.0,12.0,35,0.00,,,0.00,,2013-07-18 17:52:00,
2013-07-18 14:32:00,99.0,63.0,29.99,WNW,286,1.0,8.0,31,0.00,,,0.00,,2013-07-18 18:32:00,
2013-07-18 14:43:00,99.0,63.0,29.99,WNW,286,1.0,8.0,31,0.00,,,0.00,,2013-07-18 18:43:00,
2013-07-18 15:02:00,100.0,62.0,29.98,NW,326,5.0,10.0,29,0.00,,,0.00,,2013-07-18 19:02:00,
2013-07-18 15:22:00,100.0,60.0,29.98,NNW,338,9.0,10.0,27,0.00,,,0.00,,2013-07-18 19:22:00,
2013-07-18 15:32:00,100.0,62.0,29.97,WNW,300,4.0,7.0,29,0.00,,,0.00,,2013-07-18 19:32:00,
2013-07-18 15:43:00,100.0,63.0,29.97,NNW,344,3.0,9.0,30,0.00,,,0.00,,2013-07-18 19:43:00,
2013-07-18 16:02:00,99.0,63.0,29.96,North,358,5.0,12.0,31,0.00,,,0.00,,2013-07-18 20:02:00,
2013-07-18 16:11:00,99.0,63.0,29.96,North,358,5.0,12.0,31,0.00,,,0.00,,2013-07-18 20:11:00,
2013-07-18 16:22:00,99.0,63.0,29.96,North,358,5.0,12.0,31,0.00,,,0.00,,2013-07-18 20:22:00,
2013-07-18 16:32:00,98.0,66.0,29.96,NNW,331,8.0,10.0,36,0.00,,,0.00,,2013-07-18 20:32:00,
2013-07-18 16:43:00,98.0,66.0,29.96,NNW,331,8.0,10.0,36,0.00,,,0.00,,2013-07-18 20:43:00,
2013-07-18 16:52:00,98.0,66.0,29.96,NNW,331,8.0,10.0,36,0.00,,,0.00,,2013-07-18 20:52:00,
2013-07-18 17:11:00,97.0,66.0,29.95,NW,307,2.0,5.0,36,0.00,,,0.00,,2013-07-18 21:11:00,
2013-07-18 17:22:00,97.0,66.0,29.95,NNW,340,3.0,8.0,36,0.00,,,0.00,,2013-07-18 21:22:00,
2013-07-18 17:32:00,97.0,66.0,29.95,NNW,340,3.0,8.0,36,0.00,,,0.00,,2013-07-18 21:32:00,
2013-07-18 17:43:00,97.0,66.0,29.95,West,269,2.0,4.0,36,0.00,,,0.00,,2013-07-18 21:43:00,
2013-07-18 17:52:00,97.0,66.0,29.95,West,269,2.0,4.0,36,0.00,,,0.00,,2013-07-18 21:52:00,
2013-07-18 18:01:00,98.0,66.0,29.94,WNW,296,5.0,10.0,35,0.00,,,0.00,,2013-07-18 22:01:00,
2013-07-18 18:11:00,98.0,67.0,29.94,NNW,332,6.0,9.0,37,0.00,,,0.00,,2013-07-18 22:11:00,
2013-07-18 18:32:00,97.0,66.0,29.94,West,277,2.0,5.0,37,0.00,,,0.00,,2013-07-18 22:32:00,
2013-07-18 18:43:00,97.0,66.0,29.95,WNW,293,8.0,8.0,37,0.00,,,0.00,,2013-07-18 22:43:00,
2013-07-18 19:02:00,97.0,66.0,29.95,WSW,238,3.0,6.0,37,0.00,,,0.00,,2013-07-18 23:02:00,
2013-07-18 19:11:00,97.0,66.0,29.95,WNW,302,3.0,9.0,37,0.00,,,0.00,,2013-07-18 23:11:00,
2013-07-18 19:32:00,96.0,66.0,29.96,WSW,256,2.0,10.0,38,0.00,,,0.00,,2013-07-18 23:32:00,
2013-07-18 19:52:00,94.0,67.0,29.96,SW,221,3.0,5.0,42,0.00,,,0.00,,2013-07-18 23:52:00,
2013-07-18 20:01:00,94.0,67.0,29.96,NW,309,0.0,8.0,42,0.00,,,0.00,,2013-07-19 00:01:00,
2013-07-18 20:11:00,94.0,67.0,29.96,NW,309,0.0,8.0,42,0.00,,,0.00,,2013-07-19 00:11:00,
2013-07-18 20:22:00,94.0,67.0,29.96,NW,309,0.0,8.0,42,0.00,,,0.00,,2013-07-19 00:22:00,
2013-07-18 20:32:00,93.0,68.0,29.96,West,259,3.0,5.0,45,0.00,,,0.00,,2013-07-19 00:32:00,
2013-07-18 20:43:00,93.0,69.0,29.97,WSW,252,0.0,4.0,46,0.00,,,0.00,,2013-07-19 00:43:00,
2013-07-18 20:52:00,93.0,69.0,29.96,NW,304,3.0,6.0,46,0.00,,,0.00,,2013-07-19 00:52:00,
2013-07-18 21:01:00,93.0,70.0,29.96,West,260,3.0,3.0,47,0.00,,,0.00,,2013-07-19 01:01:00,
2013-07-18 21:22:00,93.0,70.0,29.96,West,259,0.0,5.0,47,0.00,,,0.00,,2013-07-19 01:22:00,
2013-07-18 21:32:00,93.0,70.0,29.96,West,259,4.0,5.0,47,0.00,,,0.00,,2013-07-19 01:32:00,
2013-07-18 21:42:00,93.0,70.0,29.96,WSW,243,3.0,5.0,48,0.00,,,0.00,,2013-07-19 01:42:00,
2013-07-18 21:52:00,93.0,70.0,29.96,WSW,243,3.0,5.0,48,0.00,,,0.00,,2013-07-19 01:52:00,
2013-07-18 22:02:00,93.0,70.0,29.96,WSW,243,3.0,5.0,48,0.00,,,0.00,,2013-07-19 02:02:00,
2013-07-18 22:11:00,93.0,70.0,29.96,WSW,243,3.0,5.0,48,0.00,,,0.00,,2013-07-19 02:11:00,
2013-07-18 22:43:00,92.0,71.0,29.96,WSW,237,1.0,3.0,50,0.00,,,0.00,,2013-07-19 02:43:00,
2013-07-18 23:01:00,92.0,71.0,29.96,WSW,248,3.0,4.0,51,0.00,,,0.00,,2013-07-19 03:01:00,
2013-07-18 23:11:00,92.0,71.0,29.96,SW,224,2.0,4.0,50,0.00,,,0.00,,2013-07-19 03:11:00,
2013-07-18 23:22:00,92.0,71.0,29.96,SW,224,2.0,4.0,50,0.00,,,0.00,,2013-07-19 03:22:00,
2013-07-18 23:32:00,91.0,71.0,29.94,SW,233,3.0,5.0,52,0.00,,,0.00,,2013-07-19 03:32:00,
2013-07-18 23:43:00,91.0,71.0,29.94,SSW,201,3.0,4.0,52,0.00,,,0.00,,2013-07-19 03:43:00,